createdAt,value
2023-02-06T00:02:18.207Z,15.70
2023-02-06T00:04:48.352Z,14.50
2023-02-06T00:07:18.399Z,15.98
2023-02-06T00:09:48.458Z,13.80
2023-02-06T00:12:19.125Z,13.73
2023-02-06T00:14:48.992Z,14.70
2023-02-06T00:17:19.050Z,13.77
2023-02-06T00:19:49.083Z,13.50
2023-02-06T00:22:19.178Z,13.32
2023-02-06T00:24:49.225Z,12.57
2023-02-06T00:27:19.360Z,13.40
2023-02-06T00:29:49.453Z,12.30
2023-02-06T00:32:20.073Z,12.73
2023-02-06T00:34:50.142Z,13.65
2023-02-06T00:37:20.205Z,10.93
2023-02-06T00:39:50.319Z,12.63
2023-02-06T00:42:20.659Z,13.70
2023-02-06T00:44:50.779Z,11.82
2023-02-06T00:47:19.169Z,13.10
2023-02-06T00:49:47.670Z,14.18
2023-02-06T00:52:16.079Z,13.25
2023-02-06T00:54:44.423Z,13.02
2023-02-06T00:57:12.899Z,12.82
2023-02-06T00:59:41.273Z,13.70
2023-02-06T01:02:09.801Z,13.93
2023-02-06T01:04:38.262Z,11.75
2023-02-06T01:07:06.522Z,13.38
2023-02-06T01:09:35.105Z,13.93
2023-02-06T01:12:03.656Z,12.57
2023-02-06T01:14:31.972Z,11.73
2023-02-06T01:17:00.221Z,11.85
2023-02-06T01:19:28.763Z,11.98
2023-02-06T01:21:57.141Z,12.02
2023-02-06T01:24:25.458Z,13.27
2023-02-06T01:26:53.918Z,13.70
2023-02-06T01:29:22.426Z,14.00
2023-02-06T01:31:50.745Z,20.08
2023-02-06T01:34:19.160Z,21.67
2023-02-06T01:36:47.566Z,18.48
2023-02-06T01:39:16.006Z,17.98
2023-02-06T01:41:45.603Z,14.73
2023-02-06T01:44:22.670Z,12.88
2023-02-06T01:46:57.611Z,12.98
2023-02-06T01:49:44.061Z,15.18
2023-02-06T01:52:23.612Z,15.20
2023-02-06T01:55:05.047Z,14.18
2023-02-06T01:57:35.285Z,12.80
2023-02-06T02:00:11.736Z,12.77
2023-02-06T02:02:50.758Z,12.23
2023-02-06T02:05:21.310Z,12.10
2023-02-06T02:08:06.759Z,13.25
2023-02-06T02:10:35.612Z,12.13
2023-02-06T02:13:03.242Z,12.82
2023-02-06T02:16:05.090Z,12.77
2023-02-06T02:19:16.910Z,12.70
2023-02-06T02:22:26.729Z,12.98
2023-02-06T02:25:53.494Z,12.60
2023-02-06T02:28:53.782Z,12.10
2023-02-06T02:32:03.641Z,12.10
2023-02-06T02:35:17.729Z,13.95
2023-02-06T02:38:37.549Z,13.07
2023-02-06T02:41:33.808Z,11.60
2023-02-06T02:44:24.033Z,13.68
2023-02-06T02:47:04.154Z,15.45
2023-02-06T02:49:40.849Z,15.27
2023-02-06T02:52:13.740Z,13.90
2023-02-06T02:54:43.788Z,15.45
2023-02-06T02:57:28.052Z,15.48
2023-02-06T03:00:02.133Z,13.75
2023-02-06T03:02:40.899Z,14.48
2023-02-06T03:05:20.430Z,13.82
2023-02-06T03:08:28.621Z,14.10
2023-02-06T03:11:17.292Z,13.77
2023-02-06T03:14:29.650Z,12.95
2023-02-06T03:17:14.093Z,13.23
2023-02-06T03:19:55.598Z,13.18
2023-02-06T03:22:30.138Z,14.32
2023-02-06T03:25:09.831Z,13.45
2023-02-06T03:27:46.052Z,13.65
2023-02-06T03:30:24.007Z,13.18
2023-02-06T03:33:07.704Z,13.52
2023-02-06T03:35:40.637Z,13.25
2023-02-06T03:38:11.576Z,13.88
2023-02-06T03:40:49.204Z,11.95
2023-02-06T03:43:26.667Z,11.60
2023-02-06T03:46:07.464Z,12.55
2023-02-06T03:48:45.977Z,11.65
2023-02-06T03:51:30.542Z,11.43
2023-02-06T03:54:05.902Z,11.88
2023-02-06T03:56:56.754Z,12.40
2023-02-06T03:59:27.739Z,12.00
2023-02-06T04:02:03.877Z,11.40
2023-02-06T04:04:42.584Z,10.75
2023-02-06T04:07:36.223Z,11.13
2023-02-06T04:10:07.047Z,11.45
2023-02-06T04:12:34.810Z,12.27
2023-02-06T04:15:03.873Z,11.82
2023-02-06T04:17:46.273Z,10.55
2023-02-06T04:20:21.337Z,12.07
2023-02-06T04:22:51.399Z,11.50
2023-02-06T04:25:21.924Z,10.65
2023-02-06T04:27:52.206Z,11.88
2023-02-06T04:30:22.318Z,11.45
2023-02-06T04:32:52.529Z,10.95
2023-02-06T04:35:22.852Z,11.02
2023-02-06T04:37:53.248Z,10.45
2023-02-06T04:40:23.328Z,10.93
2023-02-06T04:42:53.512Z,10.85
2023-02-06T04:45:23.762Z,11.45
2023-02-06T04:47:53.911Z,11.70
2023-02-06T04:50:24.665Z,10.13
2023-02-06T04:52:54.672Z,10.32
2023-02-06T04:55:24.785Z,11.35
2023-02-06T04:57:54.877Z,10.60
2023-02-06T05:00:24.968Z,10.50
2023-02-06T05:02:54.985Z,10.02
2023-02-06T05:05:25.059Z,10.45
2023-02-06T05:07:55.141Z,10.27
2023-02-06T05:10:26.965Z,10.13
2023-02-06T05:12:57.153Z,10.32
2023-02-06T05:15:27.192Z,10.32
2023-02-06T05:17:57.259Z,10.48
2023-02-06T05:20:27.613Z,9.60
2023-02-06T05:22:57.952Z,10.02
2023-02-06T05:25:28.304Z,9.52
2023-02-06T05:27:58.473Z,9.50
2023-02-06T05:30:28.859Z,10.77
2023-02-06T05:32:59.183Z,9.57
2023-02-06T05:35:29.462Z,10.95
2023-02-06T05:37:59.481Z,9.27
2023-02-06T05:40:29.608Z,11.80
2023-02-06T05:42:59.694Z,9.15
2023-02-06T05:45:29.736Z,10.20
2023-02-06T05:47:59.813Z,10.40
2023-02-06T05:50:28.484Z,10.77
2023-02-06T05:52:56.650Z,11.15
2023-02-06T05:55:25.405Z,11.50
2023-02-06T05:57:53.686Z,11.35
2023-02-06T06:00:22.431Z,10.48
2023-02-06T06:02:50.484Z,12.18
2023-02-06T06:05:18.980Z,11.45
2023-02-06T06:07:47.854Z,11.77
2023-02-06T06:10:16.300Z,11.32
2023-02-06T06:12:44.187Z,10.85
2023-02-06T06:15:13.082Z,11.20
2023-02-06T06:17:41.163Z,11.38
2023-02-06T06:20:10.393Z,13.23
2023-02-06T06:22:38.094Z,11.32
2023-02-06T06:25:07.314Z,11.85
2023-02-06T06:27:34.930Z,11.90
2023-02-06T06:30:04.056Z,11.82
2023-02-06T06:32:32.453Z,11.50
2023-02-06T06:35:00.099Z,10.27
2023-02-06T06:37:28.611Z,12.32
2023-02-06T06:39:56.964Z,11.38
2023-02-06T06:42:25.709Z,11.85
2023-02-06T06:44:53.824Z,12.25
2023-02-06T06:47:22.337Z,12.75
2023-02-06T06:49:50.676Z,10.80
2023-02-06T06:52:24.999Z,11.82
2023-02-06T06:54:55.733Z,12.10
2023-02-06T06:57:25.860Z,11.50
2023-02-06T06:59:55.881Z,12.50
2023-02-06T07:02:28.515Z,12.77
2023-02-06T07:05:00.410Z,12.10
2023-02-06T07:07:30.731Z,12.48
2023-02-06T07:10:02.032Z,12.77
2023-02-06T07:12:33.207Z,12.68
2023-02-06T07:15:05.684Z,13.15
2023-02-06T07:17:36.788Z,11.98
2023-02-06T07:20:07.993Z,12.15
2023-02-06T07:22:38.504Z,11.68
2023-02-06T07:25:08.761Z,11.77
2023-02-06T07:27:38.816Z,12.30
2023-02-06T07:30:10.254Z,11.55
2023-02-06T07:32:40.957Z,9.93
2023-02-06T07:35:11.187Z,12.52
2023-02-06T07:37:41.411Z,11.25
2023-02-06T07:40:12.748Z,10.43
2023-02-06T07:42:42.784Z,11.32
2023-02-06T07:45:11.319Z,12.52
2023-02-06T07:47:39.619Z,11.10
2023-02-06T07:50:08.608Z,11.80
2023-02-06T07:52:37.134Z,10.98
2023-02-06T07:55:05.552Z,12.57
2023-02-06T07:57:33.277Z,11.88
2023-02-06T08:00:01.910Z,12.43
2023-02-06T08:02:30.096Z,12.25
2023-02-06T08:04:58.540Z,12.63
2023-02-06T08:07:27.093Z,13.38
2023-02-06T08:09:55.389Z,12.07
2023-02-06T08:12:24.113Z,13.48
2023-02-06T08:14:52.802Z,13.38
2023-02-06T08:17:21.362Z,15.55
2023-02-06T08:19:49.531Z,14.40
2023-02-06T08:22:17.478Z,14.93
2023-02-06T08:24:45.900Z,13.88
2023-02-06T08:27:14.378Z,14.63
2023-02-06T08:29:42.918Z,14.85
2023-02-06T08:32:12.769Z,15.80
2023-02-06T08:34:42.592Z,14.98
2023-02-06T08:37:11.097Z,14.38
2023-02-06T08:39:42.167Z,16.10
2023-02-06T08:42:15.343Z,14.88
2023-02-06T08:44:45.384Z,15.73
2023-02-06T08:47:16.967Z,15.25
2023-02-06T08:49:51.334Z,15.02
2023-02-06T08:52:22.709Z,14.88
2023-02-06T08:54:53.071Z,17.63
2023-02-06T08:57:23.183Z,15.52
2023-02-06T08:59:53.242Z,15.90
2023-02-06T09:02:23.428Z,16.42
2023-02-06T09:04:53.576Z,14.93
2023-02-06T09:07:24.555Z,16.25
2023-02-06T09:09:54.610Z,16.67
2023-02-06T09:12:25.011Z,17.27
2023-02-06T09:14:55.099Z,18.00
2023-02-06T09:17:25.244Z,17.60
2023-02-06T09:19:55.304Z,18.98
2023-02-06T09:22:26.365Z,17.17
2023-02-06T09:24:56.475Z,18.35
2023-02-06T09:27:26.535Z,17.85
2023-02-06T09:29:56.565Z,19.30
2023-02-06T09:32:26.638Z,19.52
2023-02-06T09:34:56.666Z,18.92
2023-02-06T09:37:26.741Z,19.90
2023-02-06T09:39:56.838Z,20.38
2023-02-06T09:42:41.845Z,19.27
2023-02-06T09:45:22.452Z,21.25
2023-02-06T09:48:20.495Z,21.35
2023-02-06T09:51:17.610Z,20.48
2023-02-06T09:54:27.304Z,21.23
2023-02-06T09:57:40.037Z,22.05
2023-02-06T10:00:29.386Z,22.63
2023-02-06T10:03:38.978Z,21.77
2023-02-06T10:06:33.018Z,24.80
2023-02-06T10:09:24.463Z,22.33
2023-02-06T10:12:10.571Z,22.92
2023-02-06T10:14:56.294Z,23.40
2023-02-06T10:17:45.180Z,20.48
2023-02-06T10:20:43.524Z,22.08
2023-02-06T10:23:36.004Z,20.20
2023-02-06T10:26:17.059Z,18.75
2023-02-06T10:28:58.180Z,18.85
2023-02-06T10:31:26.134Z,16.52
2023-02-06T10:34:52.885Z,17.42
2023-02-06T10:37:52.710Z,17.33
2023-02-06T10:40:57.015Z,17.83
2023-02-06T10:44:04.184Z,16.63
2023-02-06T10:46:51.075Z,15.10
2023-02-06T10:49:47.801Z,16.65
2023-02-06T10:52:35.514Z,18.27
2023-02-06T10:55:49.271Z,16.63
2023-02-06T10:59:01.177Z,17.80
2023-02-06T11:01:40.006Z,16.38
2023-02-06T11:04:52.546Z,19.35
2023-02-06T11:07:33.533Z,17.90
2023-02-06T11:10:07.096Z,18.42
2023-02-06T11:12:48.107Z,18.92
2023-02-06T11:15:50.950Z,22.08
2023-02-06T11:18:39.157Z,22.88
2023-02-06T11:21:15.053Z,21.70
2023-02-06T11:23:45.106Z,23.08
2023-02-06T11:26:22.669Z,23.20
2023-02-06T11:29:14.636Z,23.65
2023-02-06T11:31:58.749Z,21.27
2023-02-06T11:34:53.548Z,21.65
2023-02-06T11:37:40.883Z,21.95
2023-02-06T11:40:17.316Z,20.70
2023-02-06T11:43:20.649Z,24.00
2023-02-06T11:46:14.175Z,20.92
2023-02-06T11:48:49.629Z,23.95
2023-02-06T11:51:19.724Z,20.73
2023-02-06T11:54:04.142Z,21.67
2023-02-06T11:56:32.394Z,24.40
2023-02-06T11:59:23.023Z,22.42
2023-02-06T12:01:53.903Z,23.50
2023-02-06T12:04:39.060Z,22.02
2023-02-06T12:07:22.086Z,20.98
2023-02-06T12:09:52.424Z,21.10
2023-02-06T12:12:47.210Z,19.75
2023-02-06T12:15:47.888Z,20.42
2023-02-06T12:18:32.393Z,21.20
2023-02-06T12:21:43.028Z,18.60
2023-02-06T12:24:43.255Z,20.30
2023-02-06T12:27:39.426Z,20.13
2023-02-06T12:31:04.971Z,19.05
2023-02-06T12:33:54.918Z,20.55
2023-02-06T12:36:50.014Z,20.50
2023-02-06T12:39:23.689Z,20.67
2023-02-06T12:42:18.901Z,21.35
2023-02-06T12:45:06.767Z,20.02
2023-02-06T12:47:57.534Z,17.75
2023-02-06T12:50:57.930Z,17.65
2023-02-06T12:54:00.717Z,15.90
2023-02-06T12:56:53.973Z,16.13
2023-02-06T12:59:58.326Z,17.08
2023-02-06T13:03:19.619Z,14.43
2023-02-06T13:06:21.102Z,16.33
2023-02-06T13:09:02.343Z,15.75
2023-02-06T13:11:42.649Z,16.13
2023-02-06T13:14:29.642Z,16.63
2023-02-06T13:17:04.887Z,16.52
2023-02-06T13:19:38.014Z,16.20
2023-02-06T13:22:10.696Z,16.38
2023-02-06T13:24:45.422Z,16.27
2023-02-06T13:27:37.087Z,15.65
2023-02-06T13:30:24.338Z,16.23
2023-02-06T13:33:14.360Z,16.33
2023-02-06T13:36:02.268Z,17.48
2023-02-06T13:38:35.332Z,17.85
2023-02-06T13:41:14.432Z,16.13
2023-02-06T13:44:24.805Z,15.20
2023-02-06T13:47:20.056Z,13.82
2023-02-06T13:50:24.024Z,15.02
2023-02-06T13:53:44.841Z,13.82
2023-02-06T13:56:41.818Z,14.65
2023-02-06T13:59:42.188Z,14.25
2023-02-06T14:02:23.582Z,14.05
2023-02-06T14:04:54.745Z,13.27
2023-02-06T14:08:02.021Z,14.82
2023-02-06T14:11:04.346Z,14.43
2023-02-06T14:14:14.830Z,14.52
2023-02-06T14:18:22.275Z,14.23
2023-02-06T14:21:18.452Z,14.15
2023-02-06T14:24:28.017Z,14.48
2023-02-06T14:27:33.906Z,14.40
2023-02-06T14:30:49.122Z,14.18
2023-02-06T14:33:43.433Z,14.43
2023-02-06T14:36:39.285Z,15.25
2023-02-06T14:39:49.040Z,13.65
2023-02-06T14:42:40.893Z,13.38
2023-02-06T14:45:41.584Z,13.10
2023-02-06T14:48:55.335Z,14.30
2023-02-06T14:51:37.338Z,14.25
2023-02-06T14:54:38.429Z,14.43
2023-02-06T14:57:26.467Z,14.05
2023-02-06T15:00:03.143Z,14.75
2023-02-06T15:02:36.967Z,13.95
2023-02-06T15:05:07.486Z,13.63
2023-02-06T15:07:39.340Z,13.07
2023-02-06T15:10:18.351Z,14.40
2023-02-06T15:12:54.382Z,12.02
2023-02-06T15:15:30.437Z,12.50
2023-02-06T15:18:17.962Z,12.60
2023-02-06T15:21:07.308Z,13.48
2023-02-06T15:23:45.780Z,12.48
2023-02-06T15:26:45.676Z,12.38
2023-02-06T15:29:24.338Z,13.57
2023-02-06T15:34:35.397Z,13.65
2023-02-06T15:37:44.060Z,14.25
2023-02-06T15:40:35.997Z,13.95
2023-02-06T15:43:07.025Z,15.45
2023-02-06T15:45:40.622Z,14.98
2023-02-06T15:48:31.190Z,14.10
2023-02-06T15:51:24.778Z,15.85
2023-02-06T15:54:22.670Z,14.35
2023-02-06T15:57:27.474Z,13.48
2023-02-06T15:59:59.573Z,15.27
2023-02-06T16:02:36.811Z,14.70
2023-02-06T16:05:18.797Z,14.68
2023-02-06T16:07:49.818Z,14.95
2023-02-06T16:10:40.817Z,14.20
2023-02-06T16:13:23.188Z,14.02
2023-02-06T16:16:11.645Z,13.30
2023-02-06T16:18:42.115Z,14.48
2023-02-06T16:21:18.038Z,14.80
2023-02-06T16:24:00.233Z,14.80
2023-02-06T16:26:43.324Z,16.00
2023-02-06T16:29:32.876Z,14.23
2023-02-06T16:32:29.645Z,15.30
2023-02-06T16:35:01.333Z,14.45
2023-02-06T16:37:32.129Z,15.52
2023-02-06T16:40:02.278Z,17.55
2023-02-06T16:42:41.397Z,16.67
2023-02-06T16:45:26.613Z,16.65
2023-02-06T16:47:56.561Z,16.77
2023-02-06T16:50:24.971Z,14.70
2023-02-06T16:53:01.848Z,18.70
2023-02-06T16:55:29.943Z,17.15
2023-02-06T16:58:01.582Z,16.15
2023-02-06T17:00:32.603Z,16.92
2023-02-06T17:03:01.125Z,16.67
2023-02-06T17:05:31.636Z,17.42
2023-02-06T17:08:03.998Z,15.63
2023-02-06T17:10:32.418Z,16.70
2023-02-06T17:13:02.481Z,17.38
2023-02-06T17:15:32.508Z,17.58
2023-02-06T17:18:02.301Z,16.73
2023-02-06T17:20:40.704Z,18.05
2023-02-06T17:23:11.114Z,19.23
2023-02-06T17:25:45.151Z,20.60
2023-02-06T17:28:19.452Z,18.63
2023-02-06T17:30:50.845Z,17.35
2023-02-06T17:33:21.088Z,18.48
2023-02-06T17:35:51.164Z,18.10
2023-02-06T17:38:20.914Z,18.95
2023-02-06T17:40:50.827Z,18.65
2023-02-06T17:43:20.965Z,17.63
2023-02-06T17:45:49.576Z,19.52
2023-02-06T17:48:17.353Z,18.23
2023-02-06T17:50:47.092Z,19.35
2023-02-06T17:53:15.264Z,18.85
2023-02-06T17:55:45.143Z,18.63
2023-02-06T17:58:14.672Z,19.95
2023-02-06T18:00:43.064Z,19.95
2023-02-06T18:03:11.491Z,20.20
2023-02-06T18:05:39.920Z,21.20
2023-02-06T18:08:08.230Z,19.40
2023-02-06T18:10:39.506Z,19.67
2023-02-06T18:13:09.683Z,20.38
2023-02-06T18:15:40.017Z,20.92
2023-02-06T18:18:09.814Z,19.88
2023-02-06T18:20:41.938Z,18.48
2023-02-06T18:23:14.274Z,21.08
2023-02-06T18:25:44.369Z,21.80
2023-02-06T18:28:15.122Z,23.58
2023-02-06T18:30:46.147Z,23.33
2023-02-06T18:33:16.472Z,22.40
2023-02-06T18:35:46.641Z,24.90
2023-02-06T18:38:18.404Z,24.27
2023-02-06T18:40:50.046Z,21.35
2023-02-06T18:43:18.041Z,23.95
2023-02-06T18:45:48.108Z,24.15
2023-02-06T18:48:18.160Z,27.30
2023-02-06T18:50:48.162Z,30.45
2023-02-06T18:53:18.275Z,30.83
2023-02-06T18:55:58.982Z,29.52
2023-02-06T18:58:28.421Z,29.65
2023-02-06T19:00:58.246Z,27.42
2023-02-06T19:03:28.127Z,28.98
2023-02-06T19:05:57.965Z,28.00
2023-02-06T19:08:27.952Z,28.83
2023-02-06T19:10:58.197Z,28.60
2023-02-06T19:13:27.995Z,29.52
2023-02-06T19:16:16.693Z,28.33
2023-02-06T19:18:49.471Z,28.13
2023-02-06T19:21:23.228Z,28.92
2023-02-06T19:24:00.540Z,28.17
2023-02-06T19:26:29.660Z,27.10
2023-02-06T19:29:00.703Z,27.45
2023-02-06T19:31:28.056Z,29.33
2023-02-06T19:34:01.894Z,27.73
2023-02-06T19:36:31.691Z,29.08
2023-02-06T19:39:06.338Z,25.40
2023-02-06T19:41:36.538Z,26.50
2023-02-06T19:44:14.227Z,24.90
2023-02-06T19:46:44.364Z,28.27
2023-02-06T19:49:14.189Z,28.00
2023-02-06T19:51:44.832Z,27.58
2023-02-06T19:54:15.764Z,28.38
2023-02-06T19:56:49.874Z,27.92
2023-02-06T19:59:27.606Z,28.85
2023-02-06T20:02:02.683Z,28.27
2023-02-06T20:04:35.591Z,29.92
2023-02-06T20:07:06.368Z,27.90
2023-02-06T20:09:41.152Z,29.35
2023-02-06T20:12:14.721Z,29.65
2023-02-06T20:14:42.622Z,30.80
2023-02-06T20:17:12.656Z,31.23
2023-02-06T20:19:42.680Z,33.10
2023-02-06T20:22:12.442Z,32.15
2023-02-06T20:24:42.313Z,32.05
2023-02-06T20:27:13.277Z,33.65
2023-02-06T20:29:45.843Z,32.10
2023-02-06T20:32:19.482Z,32.72
2023-02-06T20:34:48.665Z,33.47
2023-02-06T20:37:18.487Z,35.60
2023-02-06T20:39:49.264Z,32.03
2023-02-06T20:42:22.373Z,31.45
2023-02-06T20:44:52.749Z,32.90
2023-02-06T20:47:21.072Z,32.60
2023-02-06T20:49:51.009Z,35.15
2023-02-06T20:52:19.550Z,29.48
2023-02-06T20:54:47.868Z,32.88
2023-02-06T20:57:16.433Z,33.58
2023-02-06T20:59:44.858Z,32.35
2023-02-06T21:02:13.390Z,33.50
2023-02-06T21:04:41.776Z,33.40
2023-02-06T21:07:10.382Z,34.05
2023-02-06T21:09:38.750Z,33.08
2023-02-06T21:12:13.172Z,32.15
2023-02-06T21:14:42.997Z,31.80
2023-02-06T21:17:12.789Z,33.13
2023-02-06T21:19:42.715Z,32.13
2023-02-06T21:22:12.593Z,34.28
2023-02-06T21:24:42.407Z,32.35
2023-02-06T21:27:12.109Z,32.47
2023-02-06T21:29:41.810Z,31.30
2023-02-06T21:32:14.339Z,32.33
2023-02-06T21:34:44.730Z,32.35
2023-02-06T21:37:14.784Z,31.25
2023-02-06T21:39:45.053Z,29.58
2023-02-06T21:42:16.055Z,28.75
2023-02-06T21:44:46.288Z,28.58
2023-02-06T21:47:16.391Z,30.08
2023-02-06T21:49:46.701Z,30.65
2023-02-06T21:52:16.819Z,29.27
2023-02-06T21:54:46.859Z,30.80
2023-02-06T21:57:16.644Z,27.55
2023-02-06T21:59:46.558Z,30.60
2023-02-06T22:02:16.370Z,26.65
2023-02-06T22:04:45.263Z,28.35
2023-02-06T22:07:13.477Z,27.88
2023-02-06T22:09:42.110Z,28.35
2023-02-06T22:12:17.041Z,27.48
2023-02-06T22:14:47.052Z,28.30
2023-02-06T22:17:16.932Z,27.17
2023-02-06T22:25:09.252Z,26.73
2023-02-06T22:27:39.397Z,27.10
2023-02-06T22:30:10.859Z,27.48
2023-02-06T22:32:40.894Z,27.77
2023-02-06T22:35:11.006Z,28.55
2023-02-06T22:37:43.075Z,26.60
2023-02-06T22:40:14.389Z,26.30
2023-02-06T22:42:44.136Z,26.38
2023-02-06T22:45:14.097Z,27.02
2023-02-06T22:47:43.761Z,27.40
2023-02-06T22:50:13.918Z,28.08
2023-02-06T22:53:02.035Z,26.42
2023-02-06T22:55:49.929Z,27.52
2023-02-06T22:58:19.754Z,27.77
2023-02-06T23:00:49.886Z,26.45
2023-02-06T23:03:19.628Z,26.98
2023-02-06T23:05:49.482Z,28.58
2023-02-06T23:08:19.341Z,27.60
2023-02-06T23:10:49.448Z,27.90
2023-02-06T23:13:19.231Z,27.70
2023-02-06T23:15:49.035Z,26.67
2023-02-06T23:18:18.762Z,26.23
2023-02-06T23:21:24.689Z,28.63
2023-02-06T23:24:00.865Z,25.65
2023-02-06T23:26:31.807Z,26.40
2023-02-06T23:29:07.401Z,24.92
2023-02-06T23:31:37.534Z,27.60
2023-02-06T23:34:04.806Z,25.63
2023-02-06T23:36:33.188Z,28.77
2023-02-06T23:39:04.739Z,28.40
2023-02-06T23:41:35.644Z,26.85
2023-02-06T23:44:08.496Z,27.02
2023-02-06T23:46:41.333Z,28.75
2023-02-06T23:49:12.017Z,25.42
2023-02-06T23:51:39.838Z,24.33
2023-02-06T23:54:09.580Z,26.73
2023-02-06T23:56:39.379Z,28.17
2023-02-06T23:59:10.344Z,24.55
